sensor_id;sensor_type;location;lat;lon;timestamp;temperature;humidity
25128;DHT22;13107;51.304;6.866;2022-09-21T00:01:08;7.40;99.90
25128;DHT22;13107;51.304;6.866;2022-09-21T00:05:10;7.40;99.90
25128;DHT22;13107;51.304;6.866;2022-09-21T00:09:11;7.40;99.90
25128;DHT22;13107;51.304;6.866;2022-09-21T00:13:13;7.50;99.90
25128;DHT22;13107;51.304;6.866;2022-09-21T00:17:15;7.60;99.90
25128;DHT22;13107;51.304;6.866;2022-09-21T00:21:17;7.70;99.90
25128;DHT22;13107;51.304;6.866;2022-09-21T00:25:19;7.70;99.90
25128;DHT22;13107;51.304;6.866;2022-09-21T00:29:21;7.80;99.90
25128;DHT22;13107;51.304;6.866;2022-09-21T00:33:22;7.90;99.90
25128;DHT22;13107;51.304;6.866;2022-09-21T00:37:26;7.90;99.90
25128;DHT22;13107;51.304;6.866;2022-09-21T00:41:29;7.90;99.90
25128;DHT22;13107;51.304;6.866;2022-09-21T00:45:31;7.90;99.90
25128;DHT22;13107;51.304;6.866;2022-09-21T00:49:34;8.00;99.90
25128;DHT22;13107;51.304;6.866;2022-09-21T00:53:37;8.00;99.90
25128;DHT22;13107;51.304;6.866;2022-09-21T00:57:40;8.00;99.90
25128;DHT22;13107;51.304;6.866;2022-09-21T01:01:43;8.00;99.90
25128;DHT22;13107;51.304;6.866;2022-09-21T01:05:45;7.90;99.90
25128;DHT22;13107;51.304;6.866;2022-09-21T01:09:49;7.90;99.90
25128;DHT22;13107;51.304;6.866;2022-09-21T01:18:22;7.70;99.90
25128;DHT22;13107;51.304;6.866;2022-09-21T01:31:23;7.50;99.90
25128;DHT22;13107;51.304;6.866;2022-09-21T01:35:31;7.40;99.90
25128;DHT22;13107;51.304;6.866;2022-09-21T01:39:35;7.40;99.90
25128;DHT22;13107;51.304;6.866;2022-09-21T01:43:41;7.40;99.90
25128;DHT22;13107;51.304;6.866;2022-09-21T01:47:45;7.30;99.90
25128;DHT22;13107;51.304;6.866;2022-09-21T01:51:52;7.20;99.90
25128;DHT22;13107;51.304;6.866;2022-09-21T01:56:00;7.10;99.90
25128;DHT22;13107;51.304;6.866;2022-09-21T02:00:06;7.10;99.90
25128;DHT22;13107;51.304;6.866;2022-09-21T02:04:11;7.10;99.90
25128;DHT22;13107;51.304;6.866;2022-09-21T02:08:13;7.00;99.90
25128;DHT22;13107;51.304;6.866;2022-09-21T02:12:15;7.00;99.90
25128;DHT22;13107;51.304;6.866;2022-09-21T02:16:37;7.00;99.90
25128;DHT22;13107;51.304;6.866;2022-09-21T02:20:48;7.00;99.90
25128;DHT22;13107;51.304;6.866;2022-09-21T02:25:06;6.90;99.90
25128;DHT22;13107;51.304;6.866;2022-09-21T02:29:36;6.90;99.90
25128;DHT22;13107;51.304;6.866;2022-09-21T02:33:56;6.90;99.90
25128;DHT22;13107;51.304;6.866;2022-09-21T02:42:22;6.80;99.90
25128;DHT22;13107;51.304;6.866;2022-09-21T02:46:50;6.70;99.90
25128;DHT22;13107;51.304;6.866;2022-09-21T02:50:57;6.70;99.90
25128;DHT22;13107;51.304;6.866;2022-09-21T02:55:00;6.70;99.90
25128;DHT22;13107;51.304;6.866;2022-09-21T02:59:04;6.70;99.90
25128;DHT22;13107;51.304;6.866;2022-09-21T03:03:23;6.60;99.90
25128;DHT22;13107;51.304;6.866;2022-09-21T03:07:25;6.60;99.90
25128;DHT22;13107;51.304;6.866;2022-09-21T03:11:26;6.60;99.90
25128;DHT22;13107;51.304;6.866;2022-09-21T03:15:28;6.60;99.90
25128;DHT22;13107;51.304;6.866;2022-09-21T03:19:30;6.50;99.90
25128;DHT22;13107;51.304;6.866;2022-09-21T03:23:31;6.50;99.90
25128;DHT22;13107;51.304;6.866;2022-09-21T03:27:33;6.50;99.90
25128;DHT22;13107;51.304;6.866;2022-09-21T03:31:35;6.40;99.90
25128;DHT22;13107;51.304;6.866;2022-09-21T03:35:36;6.40;99.90
25128;DHT22;13107;51.304;6.866;2022-09-21T03:39:38;6.30;99.90
25128;DHT22;13107;51.304;6.866;2022-09-21T03:43:40;6.30;99.90
25128;DHT22;13107;51.304;6.866;2022-09-21T03:47:42;6.20;99.90
25128;DHT22;13107;51.304;6.866;2022-09-21T03:51:43;6.20;99.90
25128;DHT22;13107;51.304;6.866;2022-09-21T03:55:45;6.30;99.90
25128;DHT22;13107;51.304;6.866;2022-09-21T03:59:47;6.20;99.90
25128;DHT22;13107;51.304;6.866;2022-09-21T04:03:49;6.20;99.90
25128;DHT22;13107;51.304;6.866;2022-09-21T04:07:51;6.20;99.90
25128;DHT22;13107;51.304;6.866;2022-09-21T04:11:54;6.10;99.90
25128;DHT22;13107;51.304;6.866;2022-09-21T04:15:56;6.00;99.90
25128;DHT22;13107;51.304;6.866;2022-09-21T04:19:59;6.00;99.90
25128;DHT22;13107;51.304;6.866;2022-09-21T04:24:01;5.90;99.90
25128;DHT22;13107;51.304;6.866;2022-09-21T04:28:03;5.90;99.90
25128;DHT22;13107;51.304;6.866;2022-09-21T04:32:04;5.90;99.90
25128;DHT22;13107;51.304;6.866;2022-09-21T04:36:06;5.80;99.90
25128;DHT22;13107;51.304;6.866;2022-09-21T04:40:08;5.90;99.90
25128;DHT22;13107;51.304;6.866;2022-09-21T04:44:10;5.80;99.90
25128;DHT22;13107;51.304;6.866;2022-09-21T04:48:12;5.80;99.90
25128;DHT22;13107;51.304;6.866;2022-09-21T04:52:13;5.70;99.90
25128;DHT22;13107;51.304;6.866;2022-09-21T04:56:19;5.80;99.90
25128;DHT22;13107;51.304;6.866;2022-09-21T05:00:21;5.70;99.90
25128;DHT22;13107;51.304;6.866;2022-09-21T05:04:23;5.70;99.90
25128;DHT22;13107;51.304;6.866;2022-09-21T05:08:26;5.60;99.90
25128;DHT22;13107;51.304;6.866;2022-09-21T05:12:46;5.60;99.90
25128;DHT22;13107;51.304;6.866;2022-09-21T05:16:48;5.60;99.90
25128;DHT22;13107;51.304;6.866;2022-09-21T05:20:57;5.50;99.90
25128;DHT22;13107;51.304;6.866;2022-09-21T05:24:59;5.50;99.90
25128;DHT22;13107;51.304;6.866;2022-09-21T05:29:01;5.40;99.90
25128;DHT22;13107;51.304;6.866;2022-09-21T05:33:03;5.40;99.90
25128;DHT22;13107;51.304;6.866;2022-09-21T05:37:23;5.40;99.90
25128;DHT22;13107;51.304;6.866;2022-09-21T05:41:27;5.40;99.90
25128;DHT22;13107;51.304;6.866;2022-09-21T05:45:29;5.50;99.90
25128;DHT22;13107;51.304;6.866;2022-09-21T06:06:53;5.50;99.90
25128;DHT22;13107;51.304;6.866;2022-09-21T06:10:55;5.60;99.90
25128;DHT22;13107;51.304;6.866;2022-09-21T06:14:57;5.60;99.90
25128;DHT22;13107;51.304;6.866;2022-09-21T06:18:58;5.70;99.90
25128;DHT22;13107;51.304;6.866;2022-09-21T06:23:11;5.70;99.90
25128;DHT22;13107;51.304;6.866;2022-09-21T06:27:13;5.90;99.90
25128;DHT22;13107;51.304;6.866;2022-09-21T06:31:14;6.00;99.90
25128;DHT22;13107;51.304;6.866;2022-09-21T06:35:16;6.00;99.90
25128;DHT22;13107;51.304;6.866;2022-09-21T06:39:18;6.10;99.90
25128;DHT22;13107;51.304;6.866;2022-09-21T06:43:20;6.30;99.90
25128;DHT22;13107;51.304;6.866;2022-09-21T06:47:22;6.30;99.90
25128;DHT22;13107;51.304;6.866;2022-09-21T06:51:24;6.40;99.90
25128;DHT22;13107;51.304;6.866;2022-09-21T06:55:25;6.50;99.90
25128;DHT22;13107;51.304;6.866;2022-09-21T06:59:27;6.60;99.90
25128;DHT22;13107;51.304;6.866;2022-09-21T07:03:29;6.80;99.90
25128;DHT22;13107;51.304;6.866;2022-09-21T07:07:32;7.00;99.90
25128;DHT22;13107;51.304;6.866;2022-09-21T07:11:33;7.10;99.90
25128;DHT22;13107;51.304;6.866;2022-09-21T07:15:35;7.30;99.90
25128;DHT22;13107;51.304;6.866;2022-09-21T07:19:36;7.50;99.90
25128;DHT22;13107;51.304;6.866;2022-09-21T07:23:38;7.70;99.90
25128;DHT22;13107;51.304;6.866;2022-09-21T07:27:40;7.90;99.90
25128;DHT22;13107;51.304;6.866;2022-09-21T07:31:44;8.20;99.90
25128;DHT22;13107;51.304;6.866;2022-09-21T07:35:53;8.40;99.90
25128;DHT22;13107;51.304;6.866;2022-09-21T07:39:57;8.60;99.90
25128;DHT22;13107;51.304;6.866;2022-09-21T07:43:58;8.80;99.90
25128;DHT22;13107;51.304;6.866;2022-09-21T07:48:03;8.90;99.90
25128;DHT22;13107;51.304;6.866;2022-09-21T07:52:05;9.10;99.90
25128;DHT22;13107;51.304;6.866;2022-09-21T07:56:14;9.30;99.90
25128;DHT22;13107;51.304;6.866;2022-09-21T08:00:16;9.40;99.90
25128;DHT22;13107;51.304;6.866;2022-09-21T08:04:18;9.60;99.90
25128;DHT22;13107;51.304;6.866;2022-09-21T08:08:19;9.70;99.90
25128;DHT22;13107;51.304;6.866;2022-09-21T08:12:21;9.80;99.90
25128;DHT22;13107;51.304;6.866;2022-09-21T08:16:23;9.90;99.90
25128;DHT22;13107;51.304;6.866;2022-09-21T08:20:25;10.20;99.90
25128;DHT22;13107;51.304;6.866;2022-09-21T08:24:27;10.50;99.90
25128;DHT22;13107;51.304;6.866;2022-09-21T08:28:29;11.00;99.90
25128;DHT22;13107;51.304;6.866;2022-09-21T08:32:34;11.30;99.90
25128;DHT22;13107;51.304;6.866;2022-09-21T08:36:51;11.50;99.90
25128;DHT22;13107;51.304;6.866;2022-09-21T08:40:56;11.60;99.90
25128;DHT22;13107;51.304;6.866;2022-09-21T08:45:01;11.80;99.90
25128;DHT22;13107;51.304;6.866;2022-09-21T08:49:10;11.90;99.90
25128;DHT22;13107;51.304;6.866;2022-09-21T08:53:19;12.00;99.90
25128;DHT22;13107;51.304;6.866;2022-09-21T08:57:27;12.10;99.90
25128;DHT22;13107;51.304;6.866;2022-09-21T09:01:58;12.10;99.90
25128;DHT22;13107;51.304;6.866;2022-09-21T09:10:37;12.50;99.90
25128;DHT22;13107;51.304;6.866;2022-09-21T09:14:51;12.70;99.90
25128;DHT22;13107;51.304;6.866;2022-09-21T09:20:04;13.00;99.90
25128;DHT22;13107;51.304;6.866;2022-09-21T09:23:44;13.40;99.90
25128;DHT22;13107;51.304;6.866;2022-09-21T09:27:49;13.90;99.90
25128;DHT22;13107;51.304;6.866;2022-09-21T09:31:53;14.60;99.90
25128;DHT22;13107;51.304;6.866;2022-09-21T09:36:04;15.70;99.90
25128;DHT22;13107;51.304;6.866;2022-09-21T09:40:06;16.70;99.90
25128;DHT22;13107;51.304;6.866;2022-09-21T09:52:42;19.40;99.90
25128;DHT22;13107;51.304;6.866;2022-09-21T09:56:45;20.00;99.90
25128;DHT22;13107;51.304;6.866;2022-09-21T10:00:52;20.80;99.90
25128;DHT22;13107;51.304;6.866;2022-09-21T10:05:02;21.20;99.90
25128;DHT22;13107;51.304;6.866;2022-09-21T10:09:22;21.40;99.90
25128;DHT22;13107;51.304;6.866;2022-09-21T10:13:28;22.10;99.90
25128;DHT22;13107;51.304;6.866;2022-09-21T10:17:33;22.20;99.90
25128;DHT22;13107;51.304;6.866;2022-09-21T10:21:43;20.80;99.90
25128;DHT22;13107;51.304;6.866;2022-09-21T10:25:54;19.80;99.90
25128;DHT22;13107;51.304;6.866;2022-09-21T10:29:58;20.10;99.90
25128;DHT22;13107;51.304;6.866;2022-09-21T10:38:21;19.70;99.90
25128;DHT22;13107;51.304;6.866;2022-09-21T10:42:35;18.10;99.90
25128;DHT22;13107;51.304;6.866;2022-09-21T10:46:37;17.20;99.90
25128;DHT22;13107;51.304;6.866;2022-09-21T10:50:40;17.30;99.90
25128;DHT22;13107;51.304;6.866;2022-09-21T10:54:42;17.30;99.90
25128;DHT22;13107;51.304;6.866;2022-09-21T10:59:10;17.00;99.90
25128;DHT22;13107;51.304;6.866;2022-09-21T11:03:40;16.80;99.90
25128;DHT22;13107;51.304;6.866;2022-09-21T11:16:14;17.10;99.90
25128;DHT22;13107;51.304;6.866;2022-09-21T11:20:24;17.00;99.90
25128;DHT22;13107;51.304;6.866;2022-09-21T11:29:08;16.90;99.90
25128;DHT22;13107;51.304;6.866;2022-09-21T11:50:52;17.90;99.90
25128;DHT22;13107;51.304;6.866;2022-09-21T11:59:32;17.70;99.90
25128;DHT22;13107;51.304;6.866;2022-09-21T12:04:13;17.90;99.90
25128;DHT22;13107;51.304;6.866;2022-09-21T12:12:33;17.30;99.90
25128;DHT22;13107;51.304;6.866;2022-09-21T12:17:05;17.00;99.90
25128;DHT22;13107;51.304;6.866;2022-09-21T12:21:11;16.90;99.90
25128;DHT22;13107;51.304;6.866;2022-09-21T12:25:24;16.70;99.90
25128;DHT22;13107;51.304;6.866;2022-09-21T12:29:43;16.60;99.90
25128;DHT22;13107;51.304;6.866;2022-09-21T12:34:00;16.10;99.90
25128;DHT22;13107;51.304;6.866;2022-09-21T12:42:40;16.60;99.90
25128;DHT22;13107;51.304;6.866;2022-09-21T12:46:48;16.50;99.90
25128;DHT22;13107;51.304;6.866;2022-09-21T12:50:56;16.60;99.90
25128;DHT22;13107;51.304;6.866;2022-09-21T12:59:36;16.30;99.90
25128;DHT22;13107;51.304;6.866;2022-09-21T13:08:23;16.30;99.90
25128;DHT22;13107;51.304;6.866;2022-09-21T13:12:38;16.30;99.90
25128;DHT22;13107;51.304;6.866;2022-09-21T13:16:55;16.30;99.90
25128;DHT22;13107;51.304;6.866;2022-09-21T13:20:58;16.40;99.90
25128;DHT22;13107;51.304;6.866;2022-09-21T13:25:18;16.50;99.90
25128;DHT22;13107;51.304;6.866;2022-09-21T13:37:28;16.80;99.90
25128;DHT22;13107;51.304;6.866;2022-09-21T13:41:30;17.00;99.90
25128;DHT22;13107;51.304;6.866;2022-09-21T13:45:54;17.10;99.90
25128;DHT22;13107;51.304;6.866;2022-09-21T13:49:56;17.50;99.90
25128;DHT22;13107;51.304;6.866;2022-09-21T13:54:02;17.20;99.90
25128;DHT22;13107;51.304;6.866;2022-09-21T13:58:16;17.40;99.90
25128;DHT22;13107;51.304;6.866;2022-09-21T14:02:28;17.70;99.90
25128;DHT22;13107;51.304;6.866;2022-09-21T14:06:34;17.70;99.90
25128;DHT22;13107;51.304;6.866;2022-09-21T14:11:06;18.00;99.90
25128;DHT22;13107;51.304;6.866;2022-09-21T14:23:27;18.40;99.90
25128;DHT22;13107;51.304;6.866;2022-09-21T14:27:33;18.40;99.90
25128;DHT22;13107;51.304;6.866;2022-09-21T14:31:37;18.40;99.90
25128;DHT22;13107;51.304;6.866;2022-09-21T14:35:42;18.30;99.90
25128;DHT22;13107;51.304;6.866;2022-09-21T14:39:47;18.10;99.90
25128;DHT22;13107;51.304;6.866;2022-09-21T14:43:52;18.10;99.90
25128;DHT22;13107;51.304;6.866;2022-09-21T14:52:31;17.70;99.90
25128;DHT22;13107;51.304;6.866;2022-09-21T14:56:57;17.50;99.90
25128;DHT22;13107;51.304;6.866;2022-09-21T15:01:34;17.40;99.90
25128;DHT22;13107;51.304;6.866;2022-09-21T15:05:42;17.30;99.90
25128;DHT22;13107;51.304;6.866;2022-09-21T15:14:36;17.30;99.90
25128;DHT22;13107;51.304;6.866;2022-09-21T15:18:40;17.20;99.90
25128;DHT22;13107;51.304;6.866;2022-09-21T15:22:57;17.00;99.90
25128;DHT22;13107;51.304;6.866;2022-09-21T15:27:13;16.80;99.90
25128;DHT22;13107;51.304;6.866;2022-09-21T15:31:16;16.40;99.90
25128;DHT22;13107;51.304;6.866;2022-09-21T15:35:27;16.20;99.90
25128;DHT22;13107;51.304;6.866;2022-09-21T15:39:30;16.40;99.90
25128;DHT22;13107;51.304;6.866;2022-09-21T15:43:40;16.40;99.90
25128;DHT22;13107;51.304;6.866;2022-09-21T15:47:50;16.50;99.90
25128;DHT22;13107;51.304;6.866;2022-09-21T15:56:06;16.70;99.90
25128;DHT22;13107;51.304;6.866;2022-09-21T16:04:18;16.70;99.90
25128;DHT22;13107;51.304;6.866;2022-09-21T16:12:42;16.50;99.90
25128;DHT22;13107;51.304;6.866;2022-09-21T16:21:30;16.30;99.90
25128;DHT22;13107;51.304;6.866;2022-09-21T16:25:35;16.20;99.90
25128;DHT22;13107;51.304;6.866;2022-09-21T16:29:40;16.20;99.90
25128;DHT22;13107;51.304;6.866;2022-09-21T16:37:49;16.00;99.90
25128;DHT22;13107;51.304;6.866;2022-09-21T16:41:56;15.70;99.90
25128;DHT22;13107;51.304;6.866;2022-09-21T16:46:00;15.50;99.90
25128;DHT22;13107;51.304;6.866;2022-09-21T16:50:06;15.30;99.90
25128;DHT22;13107;51.304;6.866;2022-09-21T16:54:11;15.20;99.90
25128;DHT22;13107;51.304;6.866;2022-09-21T16:58:12;15.00;99.90
25128;DHT22;13107;51.304;6.866;2022-09-21T17:02:14;14.90;99.90
25128;DHT22;13107;51.304;6.866;2022-09-21T17:06:18;14.70;99.90
25128;DHT22;13107;51.304;6.866;2022-09-21T17:10:27;14.40;99.90
25128;DHT22;13107;51.304;6.866;2022-09-21T17:14:31;14.10;99.90
25128;DHT22;13107;51.304;6.866;2022-09-21T17:18:36;13.80;99.90
25128;DHT22;13107;51.304;6.866;2022-09-21T17:22:37;13.50;99.90
25128;DHT22;13107;51.304;6.866;2022-09-21T17:26:39;13.20;99.90
25128;DHT22;13107;51.304;6.866;2022-09-21T17:30:41;12.90;99.90
25128;DHT22;13107;51.304;6.866;2022-09-21T17:34:45;12.60;99.90
25128;DHT22;13107;51.304;6.866;2022-09-21T17:38:50;12.40;99.90
25128;DHT22;13107;51.304;6.866;2022-09-21T17:42:54;12.10;99.90
25128;DHT22;13107;51.304;6.866;2022-09-21T17:46:58;12.00;99.90
25128;DHT22;13107;51.304;6.866;2022-09-21T17:51:01;11.80;99.90
25128;DHT22;13107;51.304;6.866;2022-09-21T17:55:04;11.60;99.90
25128;DHT22;13107;51.304;6.866;2022-09-21T17:59:32;11.40;99.90
25128;DHT22;13107;51.304;6.866;2022-09-21T18:03:36;11.30;99.90
25128;DHT22;13107;51.304;6.866;2022-09-21T18:07:41;11.10;99.90
25128;DHT22;13107;51.304;6.866;2022-09-21T18:21:21;10.60;99.90
25128;DHT22;13107;51.304;6.866;2022-09-21T18:25:50;10.40;99.90
25128;DHT22;13107;51.304;6.866;2022-09-21T18:29:53;10.30;99.90
25128;DHT22;13107;51.304;6.866;2022-09-21T18:38:26;10.10;99.90
25128;DHT22;13107;51.304;6.866;2022-09-21T18:42:51;10.00;99.90
25128;DHT22;13107;51.304;6.866;2022-09-21T18:51:29;9.70;99.90
25128;DHT22;13107;51.304;6.866;2022-09-21T18:55:34;9.70;99.90
25128;DHT22;13107;51.304;6.866;2022-09-21T18:59:38;9.60;99.90
25128;DHT22;13107;51.304;6.866;2022-09-21T19:03:40;9.50;99.90
25128;DHT22;13107;51.304;6.866;2022-09-21T19:12:41;9.30;99.90
25128;DHT22;13107;51.304;6.866;2022-09-21T19:21:37;9.20;99.90
25128;DHT22;13107;51.304;6.866;2022-09-21T19:26:24;9.10;99.90
25128;DHT22;13107;51.304;6.866;2022-09-21T19:30:11;9.00;99.90
25128;DHT22;13107;51.304;6.866;2022-09-21T19:34:15;9.00;99.90
25128;DHT22;13107;51.304;6.866;2022-09-21T19:38:17;8.90;99.90
25128;DHT22;13107;51.304;6.866;2022-09-21T19:42:26;8.90;99.90
25128;DHT22;13107;51.304;6.866;2022-09-21T19:46:35;9.00;99.90
25128;DHT22;13107;51.304;6.866;2022-09-21T19:50:44;8.90;99.90
25128;DHT22;13107;51.304;6.866;2022-09-21T19:54:47;8.90;99.90
25128;DHT22;13107;51.304;6.866;2022-09-21T19:59:08;8.80;99.90
25128;DHT22;13107;51.304;6.866;2022-09-21T20:03:37;8.70;99.90
25128;DHT22;13107;51.304;6.866;2022-09-21T20:07:56;8.60;99.90
25128;DHT22;13107;51.304;6.866;2022-09-21T20:12:08;8.60;99.90
25128;DHT22;13107;51.304;6.866;2022-09-21T20:17:00;8.50;99.90
25128;DHT22;13107;51.304;6.866;2022-09-21T20:21:02;8.50;99.90
25128;DHT22;13107;51.304;6.866;2022-09-21T20:29:09;8.50;99.90
25128;DHT22;13107;51.304;6.866;2022-09-21T20:33:14;8.40;99.90
25128;DHT22;13107;51.304;6.866;2022-09-21T20:37:16;8.40;99.90
25128;DHT22;13107;51.304;6.866;2022-09-21T20:41:19;8.30;99.90
25128;DHT22;13107;51.304;6.866;2022-09-21T20:45:22;8.30;99.90
25128;DHT22;13107;51.304;6.866;2022-09-21T20:49:24;8.20;99.90
25128;DHT22;13107;51.304;6.866;2022-09-21T20:53:25;8.10;99.90
25128;DHT22;13107;51.304;6.866;2022-09-21T20:57:27;8.00;99.90
25128;DHT22;13107;51.304;6.866;2022-09-21T21:01:29;8.00;99.90
25128;DHT22;13107;51.304;6.866;2022-09-21T21:05:31;7.90;99.90
25128;DHT22;13107;51.304;6.866;2022-09-21T21:09:33;7.90;99.90
25128;DHT22;13107;51.304;6.866;2022-09-21T21:13:35;7.90;99.90
25128;DHT22;13107;51.304;6.866;2022-09-21T21:17:37;7.80;99.90
25128;DHT22;13107;51.304;6.866;2022-09-21T21:21:39;7.80;99.90
25128;DHT22;13107;51.304;6.866;2022-09-21T21:25:41;7.70;99.90
25128;DHT22;13107;51.304;6.866;2022-09-21T21:29:47;7.70;99.90
25128;DHT22;13107;51.304;6.866;2022-09-21T21:33:52;7.60;99.90
25128;DHT22;13107;51.304;6.866;2022-09-21T21:37:53;7.60;99.90
25128;DHT22;13107;51.304;6.866;2022-09-21T21:41:56;7.60;99.90
25128;DHT22;13107;51.304;6.866;2022-09-21T21:45:58;7.60;99.90
25128;DHT22;13107;51.304;6.866;2022-09-21T21:50:03;7.60;99.90
25128;DHT22;13107;51.304;6.866;2022-09-21T21:54:05;7.50;99.90
25128;DHT22;13107;51.304;6.866;2022-09-21T21:58:06;7.50;99.90
25128;DHT22;13107;51.304;6.866;2022-09-21T22:02:08;7.40;99.90
25128;DHT22;13107;51.304;6.866;2022-09-21T22:06:10;7.40;99.90
25128;DHT22;13107;51.304;6.866;2022-09-21T22:10:12;7.40;99.90
25128;DHT22;13107;51.304;6.866;2022-09-21T22:14:14;7.40;99.90
25128;DHT22;13107;51.304;6.866;2022-09-21T22:18:16;7.40;99.90
25128;DHT22;13107;51.304;6.866;2022-09-21T22:22:18;7.40;99.90
25128;DHT22;13107;51.304;6.866;2022-09-21T22:26:20;7.30;99.90
25128;DHT22;13107;51.304;6.866;2022-09-21T22:30:22;7.30;99.90
25128;DHT22;13107;51.304;6.866;2022-09-21T22:34:24;7.30;99.90
25128;DHT22;13107;51.304;6.866;2022-09-21T22:38:25;7.30;99.90
25128;DHT22;13107;51.304;6.866;2022-09-21T22:42:30;7.20;99.90
25128;DHT22;13107;51.304;6.866;2022-09-21T22:46:33;7.30;99.90
25128;DHT22;13107;51.304;6.866;2022-09-21T22:50:34;7.20;99.90
25128;DHT22;13107;51.304;6.866;2022-09-21T22:54:36;7.20;99.90
25128;DHT22;13107;51.304;6.866;2022-09-21T22:58:43;7.20;99.90
25128;DHT22;13107;51.304;6.866;2022-09-21T23:02:45;7.20;99.90
25128;DHT22;13107;51.304;6.866;2022-09-21T23:06:47;7.10;99.90
25128;DHT22;13107;51.304;6.866;2022-09-21T23:10:50;7.10;99.90
25128;DHT22;13107;51.304;6.866;2022-09-21T23:14:52;7.10;99.90
25128;DHT22;13107;51.304;6.866;2022-09-21T23:18:54;7.00;99.90
25128;DHT22;13107;51.304;6.866;2022-09-21T23:22:56;7.00;99.90
25128;DHT22;13107;51.304;6.866;2022-09-21T23:26:58;7.00;99.90
25128;DHT22;13107;51.304;6.866;2022-09-21T23:31:01;7.00;99.90
25128;DHT22;13107;51.304;6.866;2022-09-21T23:35:03;6.90;99.90
25128;DHT22;13107;51.304;6.866;2022-09-21T23:39:06;7.00;99.90
25128;DHT22;13107;51.304;6.866;2022-09-21T23:43:08;6.90;99.90
25128;DHT22;13107;51.304;6.866;2022-09-21T23:47:09;6.90;99.90
25128;DHT22;13107;51.304;6.866;2022-09-21T23:51:11;6.80;99.90
25128;DHT22;13107;51.304;6.866;2022-09-21T23:55:13;6.70;99.90
25128;DHT22;13107;51.304;6.866;2022-09-21T23:59:15;6.70;99.90
